sensor_id;sensor_type;location;lat;lon;timestamp;temperature;humidity
21489;DHT22;10906;45.194;5.684;2023-12-29T06:01:06;6.30;99.90
21489;DHT22;10906;45.194;5.684;2023-12-29T06:03:50;6.30;99.90
21489;DHT22;10906;45.194;5.684;2023-12-29T06:06:34;6.30;99.90
21489;DHT22;10906;45.194;5.684;2023-12-29T06:09:18;6.40;99.90
21489;DHT22;10906;45.194;5.684;2023-12-29T06:12:03;6.30;99.90
21489;DHT22;10906;45.194;5.684;2023-12-29T06:14:47;6.40;99.90
21489;DHT22;10906;45.194;5.684;2023-12-29T06:17:31;6.40;99.90
21489;DHT22;10906;45.194;5.684;2023-12-29T06:20:16;6.40;99.90
21489;DHT22;10906;45.194;5.684;2023-12-29T06:23:00;6.40;99.90
21489;DHT22;10906;45.194;5.684;2023-12-29T06:25:44;6.50;99.90
21489;DHT22;10906;45.194;5.684;2023-12-29T06:28:28;6.50;99.90
21489;DHT22;10906;45.194;5.684;2023-12-29T06:31:13;6.40;99.90
21489;DHT22;10906;45.194;5.684;2023-12-29T06:33:57;6.40;99.90
21489;DHT22;10906;45.194;5.684;2023-12-29T06:36:44;6.40;99.90
21489;DHT22;10906;45.194;5.684;2023-12-29T06:39:28;6.50;99.90
21489;DHT22;10906;45.194;5.684;2023-12-29T06:42:12;6.40;99.90
21489;DHT22;10906;45.194;5.684;2023-12-29T06:44:56;6.40;99.90
21489;DHT22;10906;45.194;5.684;2023-12-29T06:47:40;6.40;99.90
21489;DHT22;10906;45.194;5.684;2023-12-29T06:50:24;6.50;99.90
21489;DHT22;10906;45.194;5.684;2023-12-29T06:53:09;6.50;99.90
21489;DHT22;10906;45.194;5.684;2023-12-29T06:55:53;6.50;99.90
21489;DHT22;10906;45.194;5.684;2023-12-29T06:58:37;6.50;99.90
21489;DHT22;10906;45.194;5.684;2023-12-29T07:01:21;6.50;99.90
21489;DHT22;10906;45.194;5.684;2023-12-29T07:04:05;6.50;99.90
21489;DHT22;10906;45.194;5.684;2023-12-29T07:06:50;6.50;99.90
21489;DHT22;10906;45.194;5.684;2023-12-29T07:09:34;6.50;99.90
21489;DHT22;10906;45.194;5.684;2023-12-29T07:12:21;7.20;99.90
21489;DHT22;10906;45.194;5.684;2023-12-29T07:15:05;6.40;99.90
21489;DHT22;10906;45.194;5.684;2023-12-29T07:17:50;6.50;99.90
21489;DHT22;10906;45.194;5.684;2023-12-29T07:20:34;8.60;99.90
21489;DHT22;10906;45.194;5.684;2023-12-29T07:23:18;7.20;99.90
21489;DHT22;10906;45.194;5.684;2023-12-29T07:26:02;7.40;99.90
21489;DHT22;10906;45.194;5.684;2023-12-29T07:28:49;6.50;99.90
21489;DHT22;10906;45.194;5.684;2023-12-29T07:31:38;6.90;99.90
21489;DHT22;10906;45.194;5.684;2023-12-29T07:34:23;6.50;99.90
21489;DHT22;10906;45.194;5.684;2023-12-29T07:37:08;6.60;99.90
21489;DHT22;10906;45.194;5.684;2023-12-29T07:39:52;7.00;99.90
21489;DHT22;10906;45.194;5.684;2023-12-29T07:42:36;6.70;99.90
21489;DHT22;10906;45.194;5.684;2023-12-29T07:45:21;6.70;99.90
21489;DHT22;10906;45.194;5.684;2023-12-29T07:48:05;6.70;99.90
21489;DHT22;10906;45.194;5.684;2023-12-29T07:50:50;6.70;99.90
21489;DHT22;10906;45.194;5.684;2023-12-29T07:53:34;6.70;99.90
21489;DHT22;10906;45.194;5.684;2023-12-29T07:56:18;6.70;99.90
21489;DHT22;10906;45.194;5.684;2023-12-29T07:59:04;6.70;99.90
21489;DHT22;10906;45.194;5.684;2023-12-29T08:01:48;6.70;99.90
21489;DHT22;10906;45.194;5.684;2023-12-29T08:04:32;6.70;99.90
21489;DHT22;10906;45.194;5.684;2023-12-29T08:07:16;6.70;99.90
21489;DHT22;10906;45.194;5.684;2023-12-29T08:10:01;6.70;99.90
21489;DHT22;10906;45.194;5.684;2023-12-29T08:12:45;6.70;99.90
21489;DHT22;10906;45.194;5.684;2023-12-29T08:15:29;6.70;99.90
21489;DHT22;10906;45.194;5.684;2023-12-29T08:18:13;6.70;99.90
21489;DHT22;10906;45.194;5.684;2023-12-29T08:21:21;6.70;99.90
21489;DHT22;10906;45.194;5.684;2023-12-29T08:24:05;6.70;99.90
21489;DHT22;10906;45.194;5.684;2023-12-29T08:26:49;6.70;99.90
21489;DHT22;10906;45.194;5.684;2023-12-29T08:29:33;6.70;99.90
21489;DHT22;10906;45.194;5.684;2023-12-29T08:32:18;6.70;99.90
21489;DHT22;10906;45.194;5.684;2023-12-29T08:35:03;6.80;99.90
21489;DHT22;10906;45.194;5.684;2023-12-29T08:37:47;6.80;99.90
21489;DHT22;10906;45.194;5.684;2023-12-29T08:40:31;6.80;99.90
21489;DHT22;10906;45.194;5.684;2023-12-29T08:43:15;6.80;99.90
21489;DHT22;10906;45.194;5.684;2023-12-29T08:46:05;6.80;99.90
21489;DHT22;10906;45.194;5.684;2023-12-29T08:48:49;6.90;99.90
21489;DHT22;10906;45.194;5.684;2023-12-29T08:51:33;6.90;99.90
21489;DHT22;10906;45.194;5.684;2023-12-29T08:54:17;6.90;99.90
21489;DHT22;10906;45.194;5.684;2023-12-29T08:57:02;6.90;99.90
21489;DHT22;10906;45.194;5.684;2023-12-29T08:59:46;7.00;99.90
21489;DHT22;10906;45.194;5.684;2023-12-29T09:02:31;7.00;99.90
21489;DHT22;10906;45.194;5.684;2023-12-29T09:05:16;7.00;99.90
21489;DHT22;10906;45.194;5.684;2023-12-29T09:08:00;7.00;99.90
21489;DHT22;10906;45.194;5.684;2023-12-29T09:10:44;7.00;99.90
21489;DHT22;10906;45.194;5.684;2023-12-29T09:13:29;7.00;99.90
21489;DHT22;10906;45.194;5.684;2023-12-29T09:16:13;7.00;99.90
21489;DHT22;10906;45.194;5.684;2023-12-29T09:18:57;7.00;99.90
21489;DHT22;10906;45.194;5.684;2023-12-29T09:21:41;7.00;99.90
21489;DHT22;10906;45.194;5.684;2023-12-29T09:24:25;7.00;99.90
21489;DHT22;10906;45.194;5.684;2023-12-29T09:27:10;7.10;99.90
21489;DHT22;10906;45.194;5.684;2023-12-29T09:29:54;7.10;99.90
21489;DHT22;10906;45.194;5.684;2023-12-29T09:32:38;7.10;99.90
21489;DHT22;10906;45.194;5.684;2023-12-29T09:35:22;7.10;99.90
21489;DHT22;10906;45.194;5.684;2023-12-29T09:38:06;7.20;99.90
21489;DHT22;10906;45.194;5.684;2023-12-29T09:40:54;7.30;99.90
21489;DHT22;10906;45.194;5.684;2023-12-29T09:43:39;7.30;99.90
21489;DHT22;10906;45.194;5.684;2023-12-29T09:46:23;7.30;99.90
21489;DHT22;10906;45.194;5.684;2023-12-29T09:49:09;7.40;99.90
21489;DHT22;10906;45.194;5.684;2023-12-29T09:51:54;7.60;99.90
21489;DHT22;10906;45.194;5.684;2023-12-29T09:54:39;7.80;99.90
21489;DHT22;10906;45.194;5.684;2023-12-29T09:57:23;8.10;99.90
21489;DHT22;10906;45.194;5.684;2023-12-29T10:00:10;8.20;99.90
21489;DHT22;10906;45.194;5.684;2023-12-29T10:02:54;8.50;99.90
21489;DHT22;10906;45.194;5.684;2023-12-29T10:05:38;8.70;99.90
21489;DHT22;10906;45.194;5.684;2023-12-29T10:08:23;9.00;99.90
21489;DHT22;10906;45.194;5.684;2023-12-29T10:11:07;9.30;99.90
21489;DHT22;10906;45.194;5.684;2023-12-29T10:13:53;9.50;99.90
21489;DHT22;10906;45.194;5.684;2023-12-29T10:16:38;9.70;99.90
21489;DHT22;10906;45.194;5.684;2023-12-29T10:19:27;10.00;99.90
21489;DHT22;10906;45.194;5.684;2023-12-29T10:22:21;10.20;99.90
21489;DHT22;10906;45.194;5.684;2023-12-29T10:25:08;10.60;99.90
21489;DHT22;10906;45.194;5.684;2023-12-29T10:27:53;10.90;99.90
21489;DHT22;10906;45.194;5.684;2023-12-29T10:30:37;11.10;99.90
21489;DHT22;10906;45.194;5.684;2023-12-29T10:33:21;11.50;99.90
21489;DHT22;10906;45.194;5.684;2023-12-29T10:36:05;11.50;99.90
21489;DHT22;10906;45.194;5.684;2023-12-29T10:39:05;11.50;99.90
21489;DHT22;10906;45.194;5.684;2023-12-29T10:41:49;11.50;99.90
21489;DHT22;10906;45.194;5.684;2023-12-29T10:44:34;11.60;99.90
21489;DHT22;10906;45.194;5.684;2023-12-29T10:47:19;11.60;99.90
21489;DHT22;10906;45.194;5.684;2023-12-29T10:50:03;11.60;99.90
21489;DHT22;10906;45.194;5.684;2023-12-29T10:52:48;11.90;99.90
21489;DHT22;10906;45.194;5.684;2023-12-29T10:55:32;12.30;99.90
21489;DHT22;10906;45.194;5.684;2023-12-29T10:58:16;12.50;99.90
21489;DHT22;10906;45.194;5.684;2023-12-29T11:01:02;12.60;99.90
21489;DHT22;10906;45.194;5.684;2023-12-29T11:04:04;12.90;99.90
21489;DHT22;10906;45.194;5.684;2023-12-29T11:06:49;13.10;99.90
21489;DHT22;10906;45.194;5.684;2023-12-29T11:09:35;13.30;99.90
21489;DHT22;10906;45.194;5.684;2023-12-29T11:12:19;13.30;99.90
21489;DHT22;10906;45.194;5.684;2023-12-29T11:15:04;13.30;99.90
21489;DHT22;10906;45.194;5.684;2023-12-29T11:17:49;13.30;99.90
21489;DHT22;10906;45.194;5.684;2023-12-29T11:20:34;13.50;99.90
21489;DHT22;10906;45.194;5.684;2023-12-29T11:23:20;13.90;99.90
21489;DHT22;10906;45.194;5.684;2023-12-29T11:26:04;14.60;99.90
21489;DHT22;10906;45.194;5.684;2023-12-29T11:28:48;14.90;99.90
21489;DHT22;10906;45.194;5.684;2023-12-29T11:31:33;15.10;99.90
21489;DHT22;10906;45.194;5.684;2023-12-29T11:34:25;15.00;99.90
21489;DHT22;10906;45.194;5.684;2023-12-29T11:37:34;15.10;99.90
21489;DHT22;10906;45.194;5.684;2023-12-29T11:40:25;15.10;99.90
21489;DHT22;10906;45.194;5.684;2023-12-29T11:43:13;15.60;99.90
21489;DHT22;10906;45.194;5.684;2023-12-29T11:45:58;16.00;99.90
21489;DHT22;10906;45.194;5.684;2023-12-29T11:48:56;16.30;99.90
21489;DHT22;10906;45.194;5.684;2023-12-29T11:51:47;16.40;99.90
21489;DHT22;10906;45.194;5.684;2023-12-29T11:54:33;16.40;99.90
21489;DHT22;10906;45.194;5.684;2023-12-29T11:57:30;16.30;99.90
21489;DHT22;10906;45.194;5.684;2023-12-29T12:00:15;15.90;99.90
21489;DHT22;10906;45.194;5.684;2023-12-29T12:03:00;15.20;99.90
21489;DHT22;10906;45.194;5.684;2023-12-29T12:05:45;14.70;99.90
21489;DHT22;10906;45.194;5.684;2023-12-29T12:08:31;14.40;99.90
21489;DHT22;10906;45.194;5.684;2023-12-29T12:17:31;13.90;99.90
21489;DHT22;10906;45.194;5.684;2023-12-29T12:20:16;13.70;99.90
21489;DHT22;10906;45.194;5.684;2023-12-29T12:23:06;13.60;99.90
21489;DHT22;10906;45.194;5.684;2023-12-29T12:25:57;13.70;99.90
21489;DHT22;10906;45.194;5.684;2023-12-29T12:28:41;13.80;99.90
21489;DHT22;10906;45.194;5.684;2023-12-29T12:31:28;13.90;99.90
21489;DHT22;10906;45.194;5.684;2023-12-29T12:34:12;13.90;99.90
21489;DHT22;10906;45.194;5.684;2023-12-29T12:36:57;13.80;99.90
21489;DHT22;10906;45.194;5.684;2023-12-29T12:39:43;13.80;99.90
21489;DHT22;10906;45.194;5.684;2023-12-29T12:42:27;13.80;99.90
21489;DHT22;10906;45.194;5.684;2023-12-29T12:45:12;13.90;99.90
21489;DHT22;10906;45.194;5.684;2023-12-29T12:48:00;14.00;99.90
21489;DHT22;10906;45.194;5.684;2023-12-29T12:50:45;14.20;99.90
21489;DHT22;10906;45.194;5.684;2023-12-29T12:53:31;14.40;99.90
21489;DHT22;10906;45.194;5.684;2023-12-29T12:56:15;14.50;99.90
21489;DHT22;10906;45.194;5.684;2023-12-29T12:59:01;14.40;99.90
21489;DHT22;10906;45.194;5.684;2023-12-29T13:01:46;14.40;99.90
21489;DHT22;10906;45.194;5.684;2023-12-29T13:04:30;14.30;99.90
21489;DHT22;10906;45.194;5.684;2023-12-29T13:07:17;14.30;99.90
21489;DHT22;10906;45.194;5.684;2023-12-29T13:10:02;14.30;99.90
21489;DHT22;10906;45.194;5.684;2023-12-29T13:12:53;14.20;99.90
21489;DHT22;10906;45.194;5.684;2023-12-29T13:15:47;14.10;99.90
21489;DHT22;10906;45.194;5.684;2023-12-29T13:18:32;13.90;99.90
21489;DHT22;10906;45.194;5.684;2023-12-29T13:21:17;13.80;99.90
21489;DHT22;10906;45.194;5.684;2023-12-29T13:24:05;13.70;99.90
21489;DHT22;10906;45.194;5.684;2023-12-29T13:26:50;13.60;99.90
21489;DHT22;10906;45.194;5.684;2023-12-29T13:29:36;13.50;99.90
21489;DHT22;10906;45.194;5.684;2023-12-29T13:32:22;13.40;99.90
21489;DHT22;10906;45.194;5.684;2023-12-29T13:35:17;13.30;99.90
21489;DHT22;10906;45.194;5.684;2023-12-29T13:41:04;13.10;99.90
21489;DHT22;10906;45.194;5.684;2023-12-29T13:43:51;13.00;99.90
21489;DHT22;10906;45.194;5.684;2023-12-29T13:46:35;12.90;99.90
21489;DHT22;10906;45.194;5.684;2023-12-29T13:49:20;12.80;99.90
21489;DHT22;10906;45.194;5.684;2023-12-29T13:52:04;12.70;99.90
21489;DHT22;10906;45.194;5.684;2023-12-29T13:54:49;12.80;99.90
21489;DHT22;10906;45.194;5.684;2023-12-29T13:57:34;12.80;99.90
21489;DHT22;10906;45.194;5.684;2023-12-29T14:03:27;12.90;99.90
21489;DHT22;10906;45.194;5.684;2023-12-29T14:06:12;12.90;99.90
21489;DHT22;10906;45.194;5.684;2023-12-29T14:09:03;12.90;99.90
21489;DHT22;10906;45.194;5.684;2023-12-29T14:11:48;12.80;99.90
21489;DHT22;10906;45.194;5.684;2023-12-29T14:14:32;12.70;99.90
21489;DHT22;10906;45.194;5.684;2023-12-29T14:17:20;12.70;99.90
21489;DHT22;10906;45.194;5.684;2023-12-29T14:20:06;12.70;99.90
21489;DHT22;10906;45.194;5.684;2023-12-29T14:22:50;12.60;99.90
21489;DHT22;10906;45.194;5.684;2023-12-29T14:25:40;12.60;99.90
21489;DHT22;10906;45.194;5.684;2023-12-29T14:28:24;12.50;99.90
21489;DHT22;10906;45.194;5.684;2023-12-29T14:31:09;12.50;99.90
21489;DHT22;10906;45.194;5.684;2023-12-29T14:33:53;12.40;99.90
21489;DHT22;10906;45.194;5.684;2023-12-29T14:36:38;12.30;99.90
21489;DHT22;10906;45.194;5.684;2023-12-29T14:39:22;12.30;99.90
21489;DHT22;10906;45.194;5.684;2023-12-29T14:42:06;12.30;99.90
21489;DHT22;10906;45.194;5.684;2023-12-29T14:44:50;12.30;99.90
21489;DHT22;10906;45.194;5.684;2023-12-29T14:47:34;12.10;99.90
21489;DHT22;10906;45.194;5.684;2023-12-29T14:50:19;12.10;99.90
21489;DHT22;10906;45.194;5.684;2023-12-29T14:53:03;12.00;99.90
21489;DHT22;10906;45.194;5.684;2023-12-29T14:55:47;11.90;99.90
21489;DHT22;10906;45.194;5.684;2023-12-29T14:58:32;11.90;99.90
21489;DHT22;10906;45.194;5.684;2023-12-29T15:01:16;11.80;99.90
21489;DHT22;10906;45.194;5.684;2023-12-29T15:04:01;11.80;99.90
21489;DHT22;10906;45.194;5.684;2023-12-29T15:06:48;11.80;99.90
21489;DHT22;10906;45.194;5.684;2023-12-29T15:09:33;11.70;99.90
21489;DHT22;10906;45.194;5.684;2023-12-29T15:12:20;11.70;99.90
21489;DHT22;10906;45.194;5.684;2023-12-29T15:15:04;11.60;99.90
21489;DHT22;10906;45.194;5.684;2023-12-29T15:17:48;11.60;99.90
21489;DHT22;10906;45.194;5.684;2023-12-29T15:20:32;11.60;99.90
21489;DHT22;10906;45.194;5.684;2023-12-29T15:23:17;11.50;99.90
21489;DHT22;10906;45.194;5.684;2023-12-29T15:26:01;11.50;99.90
21489;DHT22;10906;45.194;5.684;2023-12-29T15:28:45;11.50;99.90
21489;DHT22;10906;45.194;5.684;2023-12-29T15:31:29;11.50;99.90
21489;DHT22;10906;45.194;5.684;2023-12-29T15:34:13;11.50;99.90
21489;DHT22;10906;45.194;5.684;2023-12-29T15:36:57;11.50;99.90
21489;DHT22;10906;45.194;5.684;2023-12-29T15:39:42;11.40;99.90
21489;DHT22;10906;45.194;5.684;2023-12-29T15:42:26;11.40;99.90
21489;DHT22;10906;45.194;5.684;2023-12-29T15:45:11;11.30;99.90
21489;DHT22;10906;45.194;5.684;2023-12-29T15:47:55;11.30;99.90
21489;DHT22;10906;45.194;5.684;2023-12-29T15:50:39;11.30;99.90
21489;DHT22;10906;45.194;5.684;2023-12-29T15:53:23;11.20;99.90
21489;DHT22;10906;45.194;5.684;2023-12-29T15:56:15;11.20;99.90
21489;DHT22;10906;45.194;5.684;2023-12-29T15:59:00;11.20;99.90
21489;DHT22;10906;45.194;5.684;2023-12-29T16:01:44;11.10;99.90
21489;DHT22;10906;45.194;5.684;2023-12-29T16:04:29;11.10;99.90
21489;DHT22;10906;45.194;5.684;2023-12-29T16:07:13;11.10;99.90
21489;DHT22;10906;45.194;5.684;2023-12-29T16:09:58;11.10;99.90
21489;DHT22;10906;45.194;5.684;2023-12-29T16:12:42;11.20;99.90
21489;DHT22;10906;45.194;5.684;2023-12-29T16:15:27;11.20;99.90
21489;DHT22;10906;45.194;5.684;2023-12-29T16:18:14;11.20;99.90
21489;DHT22;10906;45.194;5.684;2023-12-29T16:20:58;11.10;99.90
21489;DHT22;10906;45.194;5.684;2023-12-29T16:23:43;11.10;99.90
21489;DHT22;10906;45.194;5.684;2023-12-29T16:26:27;11.10;99.90
21489;DHT22;10906;45.194;5.684;2023-12-29T16:29:12;11.10;99.90
21489;DHT22;10906;45.194;5.684;2023-12-29T16:31:56;11.10;99.90
21489;DHT22;10906;45.194;5.684;2023-12-29T16:34:40;11.10;99.90
21489;DHT22;10906;45.194;5.684;2023-12-29T16:37:25;11.10;99.90
21489;DHT22;10906;45.194;5.684;2023-12-29T16:40:10;11.10;99.90
21489;DHT22;10906;45.194;5.684;2023-12-29T16:42:55;11.10;99.90
21489;DHT22;10906;45.194;5.684;2023-12-29T16:45:39;11.10;99.90
21489;DHT22;10906;45.194;5.684;2023-12-29T16:48:24;11.00;99.90
21489;DHT22;10906;45.194;5.684;2023-12-29T16:51:08;11.00;99.90
21489;DHT22;10906;45.194;5.684;2023-12-29T16:53:52;11.00;99.90
21489;DHT22;10906;45.194;5.684;2023-12-29T16:56:36;10.90;99.90
21489;DHT22;10906;45.194;5.684;2023-12-29T16:59:21;10.80;99.90
21489;DHT22;10906;45.194;5.684;2023-12-29T17:02:05;10.80;99.90
21489;DHT22;10906;45.194;5.684;2023-12-29T17:04:51;10.70;99.90
21489;DHT22;10906;45.194;5.684;2023-12-29T17:07:35;10.70;99.90
21489;DHT22;10906;45.194;5.684;2023-12-29T17:10:19;10.60;99.90
21489;DHT22;10906;45.194;5.684;2023-12-29T17:13:04;10.50;99.90
21489;DHT22;10906;45.194;5.684;2023-12-29T17:15:48;10.40;99.90
21489;DHT22;10906;45.194;5.684;2023-12-29T17:18:33;10.30;99.90
21489;DHT22;10906;45.194;5.684;2023-12-29T17:21:17;10.30;99.90
21489;DHT22;10906;45.194;5.684;2023-12-29T17:24:01;10.30;99.90
21489;DHT22;10906;45.194;5.684;2023-12-29T17:26:46;10.10;99.90
21489;DHT22;10906;45.194;5.684;2023-12-29T17:29:30;10.10;99.90
21489;DHT22;10906;45.194;5.684;2023-12-29T17:32:14;10.00;99.90
21489;DHT22;10906;45.194;5.684;2023-12-29T17:34:59;10.00;99.90
21489;DHT22;10906;45.194;5.684;2023-12-29T17:37:44;10.00;99.90
21489;DHT22;10906;45.194;5.684;2023-12-29T17:40:28;9.90;99.90
21489;DHT22;10906;45.194;5.684;2023-12-29T17:43:12;9.90;99.90
21489;DHT22;10906;45.194;5.684;2023-12-29T17:45:57;9.80;99.90
21489;DHT22;10906;45.194;5.684;2023-12-29T17:48:41;9.80;99.90
21489;DHT22;10906;45.194;5.684;2023-12-29T17:51:25;9.80;99.90
21489;DHT22;10906;45.194;5.684;2023-12-29T17:54:12;9.80;99.90
21489;DHT22;10906;45.194;5.684;2023-12-29T17:56:56;9.70;99.90
21489;DHT22;10906;45.194;5.684;2023-12-29T17:59:40;9.80;99.90
21489;DHT22;10906;45.194;5.684;2023-12-29T18:02:24;9.80;99.90
21489;DHT22;10906;45.194;5.684;2023-12-29T18:05:13;9.70;99.90
21489;DHT22;10906;45.194;5.684;2023-12-29T18:07:57;9.70;99.90
21489;DHT22;10906;45.194;5.684;2023-12-29T18:10:41;9.70;99.90
21489;DHT22;10906;45.194;5.684;2023-12-29T18:13:25;9.70;99.90
21489;DHT22;10906;45.194;5.684;2023-12-29T18:16:10;9.80;99.90
21489;DHT22;10906;45.194;5.684;2023-12-29T18:18:54;9.70;99.90
21489;DHT22;10906;45.194;5.684;2023-12-29T18:21:38;9.70;99.90
21489;DHT22;10906;45.194;5.684;2023-12-29T18:24:24;9.70;99.90
21489;DHT22;10906;45.194;5.684;2023-12-29T18:27:08;9.70;99.90
21489;DHT22;10906;45.194;5.684;2023-12-29T18:29:52;9.70;99.90
21489;DHT22;10906;45.194;5.684;2023-12-29T18:32:36;9.70;99.90
21489;DHT22;10906;45.194;5.684;2023-12-29T18:35:21;9.80;99.90
21489;DHT22;10906;45.194;5.684;2023-12-29T18:38:05;9.70;99.90
21489;DHT22;10906;45.194;5.684;2023-12-29T18:40:50;9.60;99.90
21489;DHT22;10906;45.194;5.684;2023-12-29T18:43:34;9.70;99.90
21489;DHT22;10906;45.194;5.684;2023-12-29T18:46:18;9.70;99.90
21489;DHT22;10906;45.194;5.684;2023-12-29T18:49:03;9.70;99.90
21489;DHT22;10906;45.194;5.684;2023-12-29T18:51:49;9.60;99.90
21489;DHT22;10906;45.194;5.684;2023-12-29T18:54:37;9.60;99.90
21489;DHT22;10906;45.194;5.684;2023-12-29T18:57:21;9.60;99.90
21489;DHT22;10906;45.194;5.684;2023-12-29T19:00:06;9.60;99.90
21489;DHT22;10906;45.194;5.684;2023-12-29T19:02:50;9.60;99.90
21489;DHT22;10906;45.194;5.684;2023-12-29T19:05:34;9.60;99.90
21489;DHT22;10906;45.194;5.684;2023-12-29T19:08:19;9.60;99.90
21489;DHT22;10906;45.194;5.684;2023-12-29T19:11:03;9.60;99.90
21489;DHT22;10906;45.194;5.684;2023-12-29T19:13:47;9.60;99.90
21489;DHT22;10906;45.194;5.684;2023-12-29T19:16:31;9.60;99.90
21489;DHT22;10906;45.194;5.684;2023-12-29T19:19:16;9.60;99.90
21489;DHT22;10906;45.194;5.684;2023-12-29T19:22:01;9.50;99.90
21489;DHT22;10906;45.194;5.684;2023-12-29T19:24:45;9.60;99.90
21489;DHT22;10906;45.194;5.684;2023-12-29T19:27:31;9.60;99.90
21489;DHT22;10906;45.194;5.684;2023-12-29T19:30:15;9.60;99.90
21489;DHT22;10906;45.194;5.684;2023-12-29T19:33:00;9.60;99.90
21489;DHT22;10906;45.194;5.684;2023-12-29T19:35:44;9.60;99.90
21489;DHT22;10906;45.194;5.684;2023-12-29T19:38:29;9.50;99.90
21489;DHT22;10906;45.194;5.684;2023-12-29T19:41:13;9.50;99.90
21489;DHT22;10906;45.194;5.684;2023-12-29T19:43:57;9.50;99.90
21489;DHT22;10906;45.194;5.684;2023-12-29T19:46:41;9.40;99.90
21489;DHT22;10906;45.194;5.684;2023-12-29T19:49:26;9.40;99.90
21489;DHT22;10906;45.194;5.684;2023-12-29T19:52:10;9.40;99.90
21489;DHT22;10906;45.194;5.684;2023-12-29T19:54:55;9.40;99.90
21489;DHT22;10906;45.194;5.684;2023-12-29T19:57:39;9.40;99.90
21489;DHT22;10906;45.194;5.684;2023-12-29T20:00:25;9.40;99.90
21489;DHT22;10906;45.194;5.684;2023-12-29T20:03:10;9.40;99.90
21489;DHT22;10906;45.194;5.684;2023-12-29T20:05:54;9.40;99.90
21489;DHT22;10906;45.194;5.684;2023-12-29T20:08:38;9.40;99.90
21489;DHT22;10906;45.194;5.684;2023-12-29T20:11:22;9.40;99.90
21489;DHT22;10906;45.194;5.684;2023-12-29T20:14:07;9.40;99.90
21489;DHT22;10906;45.194;5.684;2023-12-29T20:16:53;9.40;99.90
21489;DHT22;10906;45.194;5.684;2023-12-29T20:19:37;9.30;99.90
21489;DHT22;10906;45.194;5.684;2023-12-29T20:22:21;9.50;99.90
21489;DHT22;10906;45.194;5.684;2023-12-29T20:25:10;9.50;99.90
21489;DHT22;10906;45.194;5.684;2023-12-29T20:27:55;9.50;99.90
21489;DHT22;10906;45.194;5.684;2023-12-29T20:30:39;9.60;99.90
21489;DHT22;10906;45.194;5.684;2023-12-29T20:33:23;9.50;99.90
21489;DHT22;10906;45.194;5.684;2023-12-29T20:36:07;9.50;99.90
21489;DHT22;10906;45.194;5.684;2023-12-29T20:38:54;9.50;99.90
21489;DHT22;10906;45.194;5.684;2023-12-29T20:41:39;9.40;99.90
21489;DHT22;10906;45.194;5.684;2023-12-29T20:44:23;9.00;99.90
21489;DHT22;10906;45.194;5.684;2023-12-29T20:47:08;12.10;99.90
21489;DHT22;10906;45.194;5.684;2023-12-29T20:49:52;9.20;99.90
21489;DHT22;10906;45.194;5.684;2023-12-29T20:52:36;9.20;99.90
21489;DHT22;10906;45.194;5.684;2023-12-29T20:55:34;9.20;99.90
21489;DHT22;10906;45.194;5.684;2023-12-29T20:58:18;9.80;99.90
21489;DHT22;10906;45.194;5.684;2023-12-29T21:01:06;9.00;99.90
21489;DHT22;10906;45.194;5.684;2023-12-29T21:03:51;8.90;99.90
21489;DHT22;10906;45.194;5.684;2023-12-29T21:06:35;8.90;99.90
21489;DHT22;10906;45.194;5.684;2023-12-29T21:09:19;8.80;99.90
21489;DHT22;10906;45.194;5.684;2023-12-29T21:12:04;8.80;99.90
21489;DHT22;10906;45.194;5.684;2023-12-29T21:14:48;8.70;99.90
21489;DHT22;10906;45.194;5.684;2023-12-29T21:17:32;8.70;99.90
21489;DHT22;10906;45.194;5.684;2023-12-29T21:20:17;8.60;99.90
21489;DHT22;10906;45.194;5.684;2023-12-29T21:23:02;8.60;99.90
21489;DHT22;10906;45.194;5.684;2023-12-29T21:25:46;8.60;99.90
21489;DHT22;10906;45.194;5.684;2023-12-29T21:28:30;8.40;99.90
21489;DHT22;10906;45.194;5.684;2023-12-29T21:31:18;8.90;99.90
21489;DHT22;10906;45.194;5.684;2023-12-29T21:34:02;8.50;99.90
21489;DHT22;10906;45.194;5.684;2023-12-29T21:36:47;9.80;99.90
21489;DHT22;10906;45.194;5.684;2023-12-29T21:39:31;10.30;99.90
21489;DHT22;10906;45.194;5.684;2023-12-29T21:42:15;8.50;99.90
21489;DHT22;10906;45.194;5.684;2023-12-29T21:44:59;8.50;99.90
21489;DHT22;10906;45.194;5.684;2023-12-29T21:47:50;8.40;99.90
21489;DHT22;10906;45.194;5.684;2023-12-29T21:50:35;8.40;99.90
21489;DHT22;10906;45.194;5.684;2023-12-29T21:53:20;8.40;99.90
21489;DHT22;10906;45.194;5.684;2023-12-29T21:56:04;9.20;99.90
21489;DHT22;10906;45.194;5.684;2023-12-29T21:58:49;8.40;99.90
21489;DHT22;10906;45.194;5.684;2023-12-29T22:01:34;8.50;99.90
21489;DHT22;10906;45.194;5.684;2023-12-29T22:04:21;8.70;99.90
21489;DHT22;10906;45.194;5.684;2023-12-29T22:07:06;6.30;99.90
21489;DHT22;10906;45.194;5.684;2023-12-29T22:09:50;8.40;99.90
21489;DHT22;10906;45.194;5.684;2023-12-29T22:12:34;8.40;99.90
21489;DHT22;10906;45.194;5.684;2023-12-29T22:15:18;8.40;99.90
21489;DHT22;10906;45.194;5.684;2023-12-29T22:18:03;8.40;99.90
21489;DHT22;10906;45.194;5.684;2023-12-29T22:20:47;8.50;99.90
21489;DHT22;10906;45.194;5.684;2023-12-29T22:23:31;8.50;99.90
21489;DHT22;10906;45.194;5.684;2023-12-29T22:26:17;8.60;99.90
21489;DHT22;10906;45.194;5.684;2023-12-29T22:29:02;8.60;99.90
21489;DHT22;10906;45.194;5.684;2023-12-29T22:31:46;8.60;99.90
21489;DHT22;10906;45.194;5.684;2023-12-29T22:34:31;8.70;99.90
21489;DHT22;10906;45.194;5.684;2023-12-29T22:37:16;8.70;99.90
21489;DHT22;10906;45.194;5.684;2023-12-29T22:40:00;8.70;99.90
21489;DHT22;10906;45.194;5.684;2023-12-29T22:42:44;8.70;99.90
21489;DHT22;10906;45.194;5.684;2023-12-29T22:45:30;8.80;99.90
21489;DHT22;10906;45.194;5.684;2023-12-29T22:48:18;8.70;99.90
21489;DHT22;10906;45.194;5.684;2023-12-29T22:51:02;8.70;99.90
21489;DHT22;10906;45.194;5.684;2023-12-29T22:53:48;8.70;99.90
21489;DHT22;10906;45.194;5.684;2023-12-29T22:56:32;8.70;99.90
21489;DHT22;10906;45.194;5.684;2023-12-29T22:59:16;8.70;99.90
